sensor_id;sensor_type;location;lat;lon;timestamp;pressure;altitude;pressure_sealevel;temperature;humidity
8051;BME280;4068;42.158;24.732;2023-04-10T00:00:30;99844.66;;;8.94;72.32
8051;BME280;4068;42.158;24.732;2023-04-10T00:02:58;99842.09;;;8.80;73.18
8051;BME280;4068;42.158;24.732;2023-04-10T00:05:25;99838.19;;;8.73;72.88
8051;BME280;4068;42.158;24.732;2023-04-10T00:07:51;99827.91;;;8.55;73.37
8051;BME280;4068;42.158;24.732;2023-04-10T00:10:17;99807.13;;;8.36;73.74
8051;BME280;4068;42.158;24.732;2023-04-10T00:12:43;99844.56;;;8.43;74.90
8051;BME280;4068;42.158;24.732;2023-04-10T00:15:09;99836.59;;;8.30;75.46
8051;BME280;4068;42.158;24.732;2023-04-10T00:17:34;99830.66;;;8.26;76.42
8051;BME280;4068;42.158;24.732;2023-04-10T00:20:00;99828.44;;;8.20;76.34
8051;BME280;4068;42.158;24.732;2023-04-10T00:22:25;99832.63;;;8.10;76.41
8051;BME280;4068;42.158;24.732;2023-04-10T00:24:50;99812.63;;;7.93;78.51
8051;BME280;4068;42.158;24.732;2023-04-10T00:27:16;99824.78;;;7.95;78.80
8051;BME280;4068;42.158;24.732;2023-04-10T00:29:41;99799.66;;;7.75;79.99
8051;BME280;4068;42.158;24.732;2023-04-10T00:32:07;99814.53;;;7.76;81.16
8051;BME280;4068;42.158;24.732;2023-04-10T00:34:32;99799.59;;;7.63;80.75
8051;BME280;4068;42.158;24.732;2023-04-10T00:36:58;99806.38;;;7.67;81.76
8051;BME280;4068;42.158;24.732;2023-04-10T00:39:23;99808.63;;;7.73;82.17
8051;BME280;4068;42.158;24.732;2023-04-10T00:41:49;99787.00;;;7.53;83.26
8051;BME280;4068;42.158;24.732;2023-04-10T00:44:14;99799.97;;;7.56;83.68
8051;BME280;4068;42.158;24.732;2023-04-10T00:46:40;99806.50;;;7.51;84.66
8051;BME280;4068;42.158;24.732;2023-04-10T00:49:06;99793.50;;;7.48;84.40
8051;BME280;4068;42.158;24.732;2023-04-10T00:51:33;99793.91;;;7.41;83.78
8051;BME280;4068;42.158;24.732;2023-04-10T00:53:59;99786.00;;;7.27;85.12
8051;BME280;4068;42.158;24.732;2023-04-10T00:56:26;99778.56;;;7.19;85.24
8051;BME280;4068;42.158;24.732;2023-04-10T00:58:52;99785.03;;;7.28;85.39
8051;BME280;4068;42.158;24.732;2023-04-10T01:01:17;99783.56;;;7.24;84.43
8051;BME280;4068;42.158;24.732;2023-04-10T01:03:43;99784.72;;;7.20;84.09
8051;BME280;4068;42.158;24.732;2023-04-10T01:09:00;99784.03;;;7.16;83.95
8051;BME280;4068;42.158;24.732;2023-04-10T01:11:52;99790.34;;;7.14;83.80
8051;BME280;4068;42.158;24.732;2023-04-10T01:17:14;99791.63;;;7.35;84.75
8051;BME280;4068;42.158;24.732;2023-04-10T01:20:03;99788.16;;;7.35;84.31
8051;BME280;4068;42.158;24.732;2023-04-10T01:22:40;99797.88;;;7.34;84.71
8051;BME280;4068;42.158;24.732;2023-04-10T01:28:40;99788.19;;;7.06;87.58
8051;BME280;4068;42.158;24.732;2023-04-10T01:31:01;99789.50;;;7.13;88.05
8051;BME280;4068;42.158;24.732;2023-04-10T01:33:45;99791.97;;;7.02;88.74
8051;BME280;4068;42.158;24.732;2023-04-10T01:36:20;99790.16;;;7.02;89.22
8051;BME280;4068;42.158;24.732;2023-04-10T01:38:47;99767.03;;;6.79;89.65
8051;BME280;4068;42.158;24.732;2023-04-10T01:41:14;99792.50;;;6.78;90.11
8051;BME280;4068;42.158;24.732;2023-04-10T01:43:40;99794.09;;;6.66;91.26
8051;BME280;4068;42.158;24.732;2023-04-10T01:46:07;99762.84;;;6.46;92.02
8051;BME280;4068;42.158;24.732;2023-04-10T01:48:32;99790.16;;;6.59;93.04
8051;BME280;4068;42.158;24.732;2023-04-10T01:51:02;99760.47;;;6.41;93.21
8051;BME280;4068;42.158;24.732;2023-04-10T01:53:30;99796.94;;;6.63;94.06
8051;BME280;4068;42.158;24.732;2023-04-10T01:55:55;99776.59;;;6.51;94.38
8051;BME280;4068;42.158;24.732;2023-04-10T01:58:21;99799.00;;;6.58;93.79
8051;BME280;4068;42.158;24.732;2023-04-10T02:00:47;99785.03;;;6.42;93.94
8051;BME280;4068;42.158;24.732;2023-04-10T02:03:12;99797.19;;;6.44;95.10
8051;BME280;4068;42.158;24.732;2023-04-10T02:08:33;99792.75;;;6.30;96.74
8051;BME280;4068;42.158;24.732;2023-04-10T02:13:39;99779.25;;;6.20;98.72
8051;BME280;4068;42.158;24.732;2023-04-10T02:16:06;99783.97;;;6.30;99.13
8051;BME280;4068;42.158;24.732;2023-04-10T02:18:34;99787.00;;;6.38;99.23
8051;BME280;4068;42.158;24.732;2023-04-10T02:21:01;99781.09;;;6.49;99.52
8051;BME280;4068;42.158;24.732;2023-04-10T02:23:27;99771.31;;;6.51;99.38
8051;BME280;4068;42.158;24.732;2023-04-10T02:25:52;99779.22;;;6.65;99.75
8051;BME280;4068;42.158;24.732;2023-04-10T02:28:20;99770.97;;;6.71;99.79
8051;BME280;4068;42.158;24.732;2023-04-10T02:30:45;99764.94;;;6.84;99.26
8051;BME280;4068;42.158;24.732;2023-04-10T02:33:11;99741.59;;;6.78;98.87
8051;BME280;4068;42.158;24.732;2023-04-10T02:35:36;99783.56;;;7.09;98.65
8051;BME280;4068;42.158;24.732;2023-04-10T02:38:02;99774.59;;;7.26;98.07
8051;BME280;4068;42.158;24.732;2023-04-10T02:40:27;99773.16;;;7.35;98.04
8051;BME280;4068;42.158;24.732;2023-04-10T02:42:53;99762.53;;;7.37;98.65
8051;BME280;4068;42.158;24.732;2023-04-10T02:45:18;99765.13;;;7.51;98.74
8051;BME280;4068;42.158;24.732;2023-04-10T02:47:43;99770.94;;;7.56;98.56
8051;BME280;4068;42.158;24.732;2023-04-10T02:50:09;99761.25;;;7.57;98.28
8051;BME280;4068;42.158;24.732;2023-04-10T02:52:35;99772.91;;;7.67;100.00
8051;BME280;4068;42.158;24.732;2023-04-10T02:55:00;99768.16;;;7.72;100.00
8051;BME280;4068;42.158;24.732;2023-04-10T02:57:26;99759.44;;;7.85;100.00
8051;BME280;4068;42.158;24.732;2023-04-10T02:59:52;99744.16;;;7.90;100.00
8051;BME280;4068;42.158;24.732;2023-04-10T03:02:19;99768.59;;;8.06;99.22
8051;BME280;4068;42.158;24.732;2023-04-10T03:04:44;99757.84;;;8.09;99.38
8051;BME280;4068;42.158;24.732;2023-04-10T03:07:10;99769.06;;;8.26;98.99
8051;BME280;4068;42.158;24.732;2023-04-10T03:09:35;99729.84;;;8.20;96.71
8051;BME280;4068;42.158;24.732;2023-04-10T03:12:01;99770.00;;;8.65;94.10
8051;BME280;4068;42.158;24.732;2023-04-10T03:14:26;99775.88;;;8.81;92.12
8051;BME280;4068;42.158;24.732;2023-04-10T03:16:52;99738.75;;;8.70;92.09
8051;BME280;4068;42.158;24.732;2023-04-10T03:19:17;99736.44;;;8.66;89.11
8051;BME280;4068;42.158;24.732;2023-04-10T03:21:44;99768.50;;;8.74;89.21
8051;BME280;4068;42.158;24.732;2023-04-10T03:24:10;99757.16;;;8.85;91.25
8051;BME280;4068;42.158;24.732;2023-04-10T03:26:35;99767.44;;;8.89;86.71
8051;BME280;4068;42.158;24.732;2023-04-10T03:29:01;99768.59;;;8.85;87.08
8051;BME280;4068;42.158;24.732;2023-04-10T03:31:26;99767.53;;;8.75;84.88
8051;BME280;4068;42.158;24.732;2023-04-10T03:33:52;99758.97;;;8.58;85.55
8051;BME280;4068;42.158;24.732;2023-04-10T03:36:17;99766.91;;;8.45;86.54
8051;BME280;4068;42.158;24.732;2023-04-10T03:38:43;99731.81;;;8.03;87.72
8051;BME280;4068;42.158;24.732;2023-04-10T03:41:09;99776.34;;;8.09;88.94
8051;BME280;4068;42.158;24.732;2023-04-10T03:43:34;99762.84;;;7.87;90.21
8051;BME280;4068;42.158;24.732;2023-04-10T03:45:59;99751.91;;;7.66;91.56
8051;BME280;4068;42.158;24.732;2023-04-10T03:48:26;99741.59;;;7.48;92.26
8051;BME280;4068;42.158;24.732;2023-04-10T03:50:53;99767.69;;;7.53;92.89
8051;BME280;4068;42.158;24.732;2023-04-10T03:53:19;99775.91;;;7.34;94.35
8051;BME280;4068;42.158;24.732;2023-04-10T03:55:44;99773.66;;;7.28;95.32
8051;BME280;4068;42.158;24.732;2023-04-10T03:58:10;99755.31;;;7.12;96.09
8051;BME280;4068;42.158;24.732;2023-04-10T04:00:36;99737.34;;;6.89;97.40
8051;BME280;4068;42.158;24.732;2023-04-10T04:03:02;99766.91;;;6.95;98.49
8051;BME280;4068;42.158;24.732;2023-04-10T04:05:29;99778.09;;;6.98;99.51
8051;BME280;4068;42.158;24.732;2023-04-10T04:07:55;99770.09;;;6.85;100.00
8051;BME280;4068;42.158;24.732;2023-04-10T04:10:20;99761.56;;;6.82;100.00
8051;BME280;4068;42.158;24.732;2023-04-10T04:12:46;99769.16;;;6.86;100.00
8051;BME280;4068;42.158;24.732;2023-04-10T04:15:11;99765.13;;;6.81;100.00
8051;BME280;4068;42.158;24.732;2023-04-10T04:17:37;99775.84;;;6.92;100.00
8051;BME280;4068;42.158;24.732;2023-04-10T04:20:04;99750.44;;;6.77;100.00
8051;BME280;4068;42.158;24.732;2023-04-10T04:22:29;99784.72;;;7.05;100.00
8051;BME280;4068;42.158;24.732;2023-04-10T04:24:55;99743.19;;;6.95;100.00
8051;BME280;4068;42.158;24.732;2023-04-10T04:27:20;99783.09;;;7.17;100.00
8051;BME280;4068;42.158;24.732;2023-04-10T04:29:47;99762.94;;;7.16;100.00
8051;BME280;4068;42.158;24.732;2023-04-10T04:32:13;99782.31;;;7.44;100.00
8051;BME280;4068;42.158;24.732;2023-04-10T04:34:39;99744.06;;;7.37;100.00
8051;BME280;4068;42.158;24.732;2023-04-10T04:37:04;99767.06;;;7.62;100.00
8051;BME280;4068;42.158;24.732;2023-04-10T04:39:30;99785.53;;;7.89;99.39
8051;BME280;4068;42.158;24.732;2023-04-10T04:41:55;99781.50;;;8.11;97.82
8051;BME280;4068;42.158;24.732;2023-04-10T04:44:21;99779.53;;;8.27;96.99
8051;BME280;4068;42.158;24.732;2023-04-10T04:46:46;99777.31;;;8.34;95.23
8051;BME280;4068;42.158;24.732;2023-04-10T04:49:11;99767.69;;;8.33;95.22
8051;BME280;4068;42.158;24.732;2023-04-10T04:51:37;99762.50;;;8.32;95.00
8051;BME280;4068;42.158;24.732;2023-04-10T04:54:03;99766.53;;;8.24;94.95
8051;BME280;4068;42.158;24.732;2023-04-10T04:56:28;99752.34;;;8.12;95.04
8051;BME280;4068;42.158;24.732;2023-04-10T04:58:54;99785.84;;;8.25;95.25
8051;BME280;4068;42.158;24.732;2023-04-10T05:01:19;99793.59;;;8.28;95.17
8051;BME280;4068;42.158;24.732;2023-04-10T05:03:44;99788.41;;;8.39;94.43
8051;BME280;4068;42.158;24.732;2023-04-10T05:06:10;99780.22;;;8.57;93.48
8051;BME280;4068;42.158;24.732;2023-04-10T05:08:35;99772.53;;;8.67;91.65
8051;BME280;4068;42.158;24.732;2023-04-10T05:11:01;99768.91;;;8.80;91.72
8051;BME280;4068;42.158;24.732;2023-04-10T05:13:26;99773.00;;;8.97;91.09
8051;BME280;4068;42.158;24.732;2023-04-10T05:15:52;99790.50;;;9.37;88.11
8051;BME280;4068;42.158;24.732;2023-04-10T05:18:17;99798.50;;;9.61;86.51
8051;BME280;4068;42.158;24.732;2023-04-10T05:20:45;99770.19;;;9.62;83.68
8051;BME280;4068;42.158;24.732;2023-04-10T05:23:11;99783.25;;;9.89;83.95
8051;BME280;4068;42.158;24.732;2023-04-10T05:25:37;99789.63;;;10.22;82.82
8051;BME280;4068;42.158;24.732;2023-04-10T05:28:02;99765.94;;;10.32;78.83
8051;BME280;4068;42.158;24.732;2023-04-10T05:30:28;99804.28;;;10.75;79.74
8051;BME280;4068;42.158;24.732;2023-04-10T05:32:53;99813.66;;;10.79;78.29
8051;BME280;4068;42.158;24.732;2023-04-10T05:35:19;99796.31;;;10.97;77.87
8051;BME280;4068;42.158;24.732;2023-04-10T05:37:44;99809.25;;;11.25;76.41
8051;BME280;4068;42.158;24.732;2023-04-10T05:40:10;99814.31;;;11.28;75.64
8051;BME280;4068;42.158;24.732;2023-04-10T05:42:35;99812.84;;;11.46;74.79
8051;BME280;4068;42.158;24.732;2023-04-10T05:45:01;99803.16;;;11.56;73.66
8051;BME280;4068;42.158;24.732;2023-04-10T05:47:26;99793.22;;;11.70;74.29
8051;BME280;4068;42.158;24.732;2023-04-10T05:49:52;99815.88;;;11.97;73.13
8051;BME280;4068;42.158;24.732;2023-04-10T05:52:17;99807.63;;;12.11;71.01
8051;BME280;4068;42.158;24.732;2023-04-10T05:54:43;99801.34;;;12.12;69.94
8051;BME280;4068;42.158;24.732;2023-04-10T05:57:08;99790.22;;;12.07;69.05
8051;BME280;4068;42.158;24.732;2023-04-10T05:59:33;99791.94;;;12.08;69.30
8051;BME280;4068;42.158;24.732;2023-04-10T06:01:59;99801.22;;;12.14;68.20
8051;BME280;4068;42.158;24.732;2023-04-10T06:04:25;99788.91;;;12.01;67.72
8051;BME280;4068;42.158;24.732;2023-04-10T06:06:50;99777.03;;;12.17;65.73
8051;BME280;4068;42.158;24.732;2023-04-10T06:09:16;99809.41;;;12.43;63.33
8051;BME280;4068;42.158;24.732;2023-04-10T06:11:41;99804.31;;;12.51;63.06
8051;BME280;4068;42.158;24.732;2023-04-10T06:14:06;99802.94;;;12.57;61.75
8051;BME280;4068;42.158;24.732;2023-04-10T06:16:32;99809.03;;;12.69;62.49
8051;BME280;4068;42.158;24.732;2023-04-10T06:18:57;99809.09;;;13.09;60.36
8051;BME280;4068;42.158;24.732;2023-04-10T06:21:23;99811.34;;;13.45;58.46
8051;BME280;4068;42.158;24.732;2023-04-10T06:23:48;99804.88;;;13.78;56.47
8051;BME280;4068;42.158;24.732;2023-04-10T06:26:14;99807.28;;;14.01;55.57
8051;BME280;4068;42.158;24.732;2023-04-10T06:28:39;99803.75;;;14.01;53.27
8051;BME280;4068;42.158;24.732;2023-04-10T06:31:05;99776.94;;;13.83;54.54
8051;BME280;4068;42.158;24.732;2023-04-10T06:33:31;99807.00;;;14.04;52.16
8051;BME280;4068;42.158;24.732;2023-04-10T06:36:00;99805.75;;;14.18;52.54
8051;BME280;4068;42.158;24.732;2023-04-10T06:38:25;99814.44;;;14.30;51.78
8051;BME280;4068;42.158;24.732;2023-04-10T06:40:51;99809.38;;;14.17;52.15
8051;BME280;4068;42.158;24.732;2023-04-10T06:43:16;99767.97;;;14.32;51.93
8051;BME280;4068;42.158;24.732;2023-04-10T06:45:41;99803.72;;;14.79;51.11
8051;BME280;4068;42.158;24.732;2023-04-10T06:48:07;99798.66;;;14.86;50.26
8051;BME280;4068;42.158;24.732;2023-04-10T06:50:32;99806.69;;;15.13;50.44
8051;BME280;4068;42.158;24.732;2023-04-10T06:52:58;99811.88;;;15.52;49.84
8051;BME280;4068;42.158;24.732;2023-04-10T06:55:25;99811.56;;;16.01;48.80
8051;BME280;4068;42.158;24.732;2023-04-10T06:57:50;99791.41;;;16.25;47.03
8051;BME280;4068;42.158;24.732;2023-04-10T07:00:17;99810.34;;;15.96;46.73
8051;BME280;4068;42.158;24.732;2023-04-10T07:02:42;99809.22;;;15.98;47.36
8051;BME280;4068;42.158;24.732;2023-04-10T07:05:08;99810.38;;;16.14;47.06
8051;BME280;4068;42.158;24.732;2023-04-10T07:07:33;99774.53;;;16.07;45.29
8051;BME280;4068;42.158;24.732;2023-04-10T07:09:59;99782.44;;;16.34;43.25
8051;BME280;4068;42.158;24.732;2023-04-10T07:12:24;99797.31;;;16.55;42.71
8051;BME280;4068;42.158;24.732;2023-04-10T07:14:50;99795.84;;;16.87;42.96
8051;BME280;4068;42.158;24.732;2023-04-10T07:17:16;99809.72;;;17.00;42.73
8051;BME280;4068;42.158;24.732;2023-04-10T07:19:41;99811.47;;;17.18;42.63
8051;BME280;4068;42.158;24.732;2023-04-10T07:22:06;99805.72;;;17.39;42.59
8051;BME280;4068;42.158;24.732;2023-04-10T07:24:32;99799.97;;;17.34;42.67
8051;BME280;4068;42.158;24.732;2023-04-10T07:26:57;99803.91;;;17.13;42.22
8051;BME280;4068;42.158;24.732;2023-04-10T07:29:24;99786.19;;;17.20;43.07
8051;BME280;4068;42.158;24.732;2023-04-10T07:31:50;99793.03;;;17.15;42.80
8051;BME280;4068;42.158;24.732;2023-04-10T07:34:15;99803.44;;;17.18;42.36
8051;BME280;4068;42.158;24.732;2023-04-10T07:36:41;99795.28;;;17.01;41.86
8051;BME280;4068;42.158;24.732;2023-04-10T07:39:06;99800.81;;;17.00;41.83
8051;BME280;4068;42.158;24.732;2023-04-10T07:41:32;99770.44;;;17.17;41.88
8051;BME280;4068;42.158;24.732;2023-04-10T07:43:57;99790.34;;;17.66;41.06
8051;BME280;4068;42.158;24.732;2023-04-10T07:46:23;99781.25;;;18.01;40.44
8051;BME280;4068;42.158;24.732;2023-04-10T07:48:48;99786.63;;;18.26;39.70
8051;BME280;4068;42.158;24.732;2023-04-10T07:51:14;99788.47;;;18.34;38.96
8051;BME280;4068;42.158;24.732;2023-04-10T07:53:40;99787.53;;;17.67;39.96
8051;BME280;4068;42.158;24.732;2023-04-10T07:56:06;99789.56;;;17.90;39.33
8051;BME280;4068;42.158;24.732;2023-04-10T07:58:32;99779.50;;;17.75;39.01
8051;BME280;4068;42.158;24.732;2023-04-10T08:00:57;99780.88;;;17.88;38.89
8051;BME280;4068;42.158;24.732;2023-04-10T08:03:23;99762.34;;;16.83;40.00
8051;BME280;4068;42.158;24.732;2023-04-10T08:05:49;99782.94;;;17.08;40.31
8051;BME280;4068;42.158;24.732;2023-04-10T08:08:15;99775.06;;;17.50;39.41
8051;BME280;4068;42.158;24.732;2023-04-10T08:10:40;99753.16;;;17.54;39.07
8051;BME280;4068;42.158;24.732;2023-04-10T08:13:06;99764.00;;;17.53;38.27
8051;BME280;4068;42.158;24.732;2023-04-10T08:15:32;99766.31;;;17.90;38.45
8051;BME280;4068;42.158;24.732;2023-04-10T08:17:57;99768.00;;;18.00;38.02
8051;BME280;4068;42.158;24.732;2023-04-10T08:20:23;99762.63;;;18.66;37.24
8051;BME280;4068;42.158;24.732;2023-04-10T08:22:48;99767.78;;;18.92;36.52
8051;BME280;4068;42.158;24.732;2023-04-10T08:25:13;99761.75;;;18.57;36.90
8051;BME280;4068;42.158;24.732;2023-04-10T08:27:39;99762.28;;;18.60;37.16
8051;BME280;4068;42.158;24.732;2023-04-10T08:30:05;99768.63;;;18.76;37.19
8051;BME280;4068;42.158;24.732;2023-04-10T08:32:31;99760.31;;;18.21;37.39
8051;BME280;4068;42.158;24.732;2023-04-10T08:34:56;99752.59;;;18.02;37.70
8051;BME280;4068;42.158;24.732;2023-04-10T08:37:22;99738.13;;;17.27;38.29
8051;BME280;4068;42.158;24.732;2023-04-10T08:39:47;99741.94;;;17.08;38.89
8051;BME280;4068;42.158;24.732;2023-04-10T08:42:13;99757.72;;;17.19;38.96
8051;BME280;4068;42.158;24.732;2023-04-10T08:44:38;99727.94;;;16.88;39.21
8051;BME280;4068;42.158;24.732;2023-04-10T08:47:06;99755.47;;;17.06;39.64
8051;BME280;4068;42.158;24.732;2023-04-10T08:49:52;99750.41;;;17.38;39.81
8051;BME280;4068;42.158;24.732;2023-04-10T08:52:24;99749.88;;;17.93;38.70
8051;BME280;4068;42.158;24.732;2023-04-10T08:54:53;99746.81;;;17.88;37.98
8051;BME280;4068;42.158;24.732;2023-04-10T08:57:19;99731.69;;;17.46;38.08
8051;BME280;4068;42.158;24.732;2023-04-10T08:59:49;99749.88;;;17.26;39.33
8051;BME280;4068;42.158;24.732;2023-04-10T09:02:18;99739.94;;;16.84;39.68
8051;BME280;4068;42.158;24.732;2023-04-10T09:04:51;99734.97;;;16.89;39.28
8051;BME280;4068;42.158;24.732;2023-04-10T09:07:19;99717.44;;;16.95;39.32
8051;BME280;4068;42.158;24.732;2023-04-10T09:09:45;99734.19;;;17.48;38.80
8051;BME280;4068;42.158;24.732;2023-04-10T09:12:12;99725.53;;;17.87;38.04
8051;BME280;4068;42.158;24.732;2023-04-10T09:14:39;99729.53;;;17.83;37.80
8051;BME280;4068;42.158;24.732;2023-04-10T09:17:21;99733.91;;;17.67;37.75
8051;BME280;4068;42.158;24.732;2023-04-10T09:19:55;99722.22;;;17.17;38.42
8051;BME280;4068;42.158;24.732;2023-04-10T09:22:32;99690.78;;;17.44;37.78
8051;BME280;4068;42.158;24.732;2023-04-10T09:24:58;99710.44;;;17.69;38.23
8051;BME280;4068;42.158;24.732;2023-04-10T09:27:31;99719.16;;;17.80;38.95
8051;BME280;4068;42.158;24.732;2023-04-10T09:29:58;99719.31;;;17.78;37.73
8051;BME280;4068;42.158;24.732;2023-04-10T09:32:40;99717.69;;;18.26;37.48
8051;BME280;4068;42.158;24.732;2023-04-10T09:35:06;99702.09;;;18.30;37.63
8051;BME280;4068;42.158;24.732;2023-04-10T09:37:34;99684.13;;;18.14;37.75
8051;BME280;4068;42.158;24.732;2023-04-10T09:40:00;99717.53;;;18.11;37.92
8051;BME280;4068;42.158;24.732;2023-04-10T09:42:33;99716.34;;;18.22;37.92
8051;BME280;4068;42.158;24.732;2023-04-10T09:45:02;99708.81;;;18.18;38.06
8051;BME280;4068;42.158;24.732;2023-04-10T09:47:27;99703.03;;;17.71;38.72
8051;BME280;4068;42.158;24.732;2023-04-10T09:49:55;99720.28;;;17.52;39.17
8051;BME280;4068;42.158;24.732;2023-04-10T09:52:24;99724.91;;;17.25;39.94
8051;BME280;4068;42.158;24.732;2023-04-10T09:54:54;99707.59;;;16.77;40.97
8051;BME280;4068;42.158;24.732;2023-04-10T09:57:21;99714.66;;;16.52;41.75
8051;BME280;4068;42.158;24.732;2023-04-10T09:59:51;99711.13;;;16.25;42.72
8051;BME280;4068;42.158;24.732;2023-04-10T10:02:19;99692.50;;;16.42;42.68
8051;BME280;4068;42.158;24.732;2023-04-10T10:04:46;99722.78;;;16.42;43.40
8051;BME280;4068;42.158;24.732;2023-04-10T10:07:14;99712.09;;;16.42;43.40
8051;BME280;4068;42.158;24.732;2023-04-10T10:09:41;99707.63;;;16.85;42.12
8051;BME280;4068;42.158;24.732;2023-04-10T10:12:08;99691.28;;;16.62;42.58
8051;BME280;4068;42.158;24.732;2023-04-10T10:14:41;99706.31;;;16.55;43.00
8051;BME280;4068;42.158;24.732;2023-04-10T10:17:10;99691.06;;;16.82;42.42
8051;BME280;4068;42.158;24.732;2023-04-10T10:19:52;99718.59;;;16.92;42.60
8051;BME280;4068;42.158;24.732;2023-04-10T10:22:22;99705.06;;;16.76;42.53
8051;BME280;4068;42.158;24.732;2023-04-10T10:24:50;99706.38;;;16.98;42.94
8051;BME280;4068;42.158;24.732;2023-04-10T10:27:22;99702.72;;;16.99;43.34
8051;BME280;4068;42.158;24.732;2023-04-10T10:29:48;99703.47;;;17.25;42.73
8051;BME280;4068;42.158;24.732;2023-04-10T10:32:16;99705.66;;;17.30;42.90
8051;BME280;4068;42.158;24.732;2023-04-10T10:34:43;99679.88;;;17.37;43.31
8051;BME280;4068;42.158;24.732;2023-04-10T10:37:08;99704.88;;;17.46;43.74
8051;BME280;4068;42.158;24.732;2023-04-10T10:39:52;99711.16;;;17.20;45.01
8051;BME280;4068;42.158;24.732;2023-04-10T10:42:32;99691.81;;;16.92;47.77
8051;BME280;4068;42.158;24.732;2023-04-10T10:45:17;99698.56;;;17.13;47.41
8051;BME280;4068;42.158;24.732;2023-04-10T10:47:47;99686.09;;;17.38;48.16
8051;BME280;4068;42.158;24.732;2023-04-10T10:50:13;99684.28;;;17.63;45.91
8051;BME280;4068;42.158;24.732;2023-04-10T10:55:29;99687.31;;;17.60;44.85
8051;BME280;4068;42.158;24.732;2023-04-10T10:58:07;99688.69;;;17.21;45.69
8051;BME280;4068;42.158;24.732;2023-04-10T11:05:52;99679.28;;;18.26;43.08
8051;BME280;4068;42.158;24.732;2023-04-10T11:13:30;99670.47;;;18.57;42.11
8051;BME280;4068;42.158;24.732;2023-04-10T11:15:57;99668.38;;;18.19;42.36
8051;BME280;4068;42.158;24.732;2023-04-10T11:21:10;99683.94;;;17.83;42.49
8051;BME280;4068;42.158;24.732;2023-04-10T11:31:38;99651.75;;;17.41;43.73
8051;BME280;4068;42.158;24.732;2023-04-10T11:34:06;99674.22;;;17.73;43.23
8051;BME280;4068;42.158;24.732;2023-04-10T11:36:33;99682.31;;;18.06;43.16
8051;BME280;4068;42.158;24.732;2023-04-10T11:39:05;99669.53;;;18.08;42.82
8051;BME280;4068;42.158;24.732;2023-04-10T11:41:37;99682.25;;;18.39;41.98
8051;BME280;4068;42.158;24.732;2023-04-10T11:44:05;99676.09;;;17.98;42.21
8051;BME280;4068;42.158;24.732;2023-04-10T11:46:35;99686.50;;;17.08;43.92
8051;BME280;4068;42.158;24.732;2023-04-10T11:49:02;99681.78;;;16.68;45.76
8051;BME280;4068;42.158;24.732;2023-04-10T11:51:28;99680.44;;;16.37;46.31
8051;BME280;4068;42.158;24.732;2023-04-10T11:54:10;99675.22;;;16.10;47.57
8051;BME280;4068;42.158;24.732;2023-04-10T11:56:41;99661.66;;;15.49;50.02
8051;BME280;4068;42.158;24.732;2023-04-10T11:59:07;99679.50;;;15.30;52.01
8051;BME280;4068;42.158;24.732;2023-04-10T12:01:38;99671.25;;;15.42;55.52
8051;BME280;4068;42.158;24.732;2023-04-10T12:04:12;99638.97;;;15.71;55.62
8051;BME280;4068;42.158;24.732;2023-04-10T12:06:43;99660.22;;;16.43;53.28
8051;BME280;4068;42.158;24.732;2023-04-10T12:09:12;99663.44;;;16.47;52.07
8051;BME280;4068;42.158;24.732;2023-04-10T12:11:38;99649.09;;;16.30;50.95
8051;BME280;4068;42.158;24.732;2023-04-10T12:14:12;99658.94;;;16.55;50.31
8051;BME280;4068;42.158;24.732;2023-04-10T12:16:37;99657.44;;;16.87;48.95
8051;BME280;4068;42.158;24.732;2023-04-10T12:19:03;99653.88;;;17.30;47.82
8051;BME280;4068;42.158;24.732;2023-04-10T12:21:29;99643.31;;;17.12;46.59
8051;BME280;4068;42.158;24.732;2023-04-10T12:23:55;99645.66;;;17.15;46.78
8051;BME280;4068;42.158;24.732;2023-04-10T12:26:20;99612.47;;;16.99;46.64
8051;BME280;4068;42.158;24.732;2023-04-10T12:28:56;99608.78;;;16.58;48.13
8051;BME280;4068;42.158;24.732;2023-04-10T12:31:30;99635.47;;;17.35;46.39
8051;BME280;4068;42.158;24.732;2023-04-10T12:33:56;99604.44;;;16.99;47.36
8051;BME280;4068;42.158;24.732;2023-04-10T12:36:23;99611.53;;;17.66;46.40
8051;BME280;4068;42.158;24.732;2023-04-10T12:38:53;99620.53;;;18.31;44.31
8051;BME280;4068;42.158;24.732;2023-04-10T12:41:21;99621.50;;;18.46;43.04
8051;BME280;4068;42.158;24.732;2023-04-10T12:43:47;99609.03;;;18.62;42.23
8051;BME280;4068;42.158;24.732;2023-04-10T12:46:33;99613.06;;;18.58;42.50
8051;BME280;4068;42.158;24.732;2023-04-10T12:49:11;99599.72;;;18.41;42.55
8051;BME280;4068;42.158;24.732;2023-04-10T12:51:55;99607.16;;;18.06;42.79
8051;BME280;4068;42.158;24.732;2023-04-10T12:54:28;99598.59;;;18.11;43.13
8051;BME280;4068;42.158;24.732;2023-04-10T12:56:54;99569.59;;;18.15;43.14
8051;BME280;4068;42.158;24.732;2023-04-10T12:59:20;99591.66;;;18.41;42.62
8051;BME280;4068;42.158;24.732;2023-04-10T13:01:45;99586.84;;;18.28;42.52
8051;BME280;4068;42.158;24.732;2023-04-10T13:04:11;99587.38;;;18.55;41.88
8051;BME280;4068;42.158;24.732;2023-04-10T13:06:43;99564.75;;;18.50;41.47
8051;BME280;4068;42.158;24.732;2023-04-10T13:09:11;99584.09;;;18.76;40.89
8051;BME280;4068;42.158;24.732;2023-04-10T13:11:37;99555.88;;;17.76;42.61
8051;BME280;4068;42.158;24.732;2023-04-10T13:14:02;99576.50;;;17.76;43.36
8051;BME280;4068;42.158;24.732;2023-04-10T13:16:27;99546.19;;;17.67;43.57
8051;BME280;4068;42.158;24.732;2023-04-10T13:18:53;99549.88;;;17.74;43.31
8051;BME280;4068;42.158;24.732;2023-04-10T13:21:18;99546.84;;;17.77;42.05
8051;BME280;4068;42.158;24.732;2023-04-10T13:23:47;99568.63;;;17.74;42.44
8051;BME280;4068;42.158;24.732;2023-04-10T13:26:13;99545.81;;;17.87;41.73
8051;BME280;4068;42.158;24.732;2023-04-10T13:28:38;99555.19;;;18.16;41.92
8051;BME280;4068;42.158;24.732;2023-04-10T13:31:04;99550.44;;;18.26;41.25
8051;BME280;4068;42.158;24.732;2023-04-10T13:33:29;99560.50;;;18.24;40.93
8051;BME280;4068;42.158;24.732;2023-04-10T13:35:55;99556.16;;;18.23;41.51
8051;BME280;4068;42.158;24.732;2023-04-10T13:38:20;99547.75;;;18.26;41.17
8051;BME280;4068;42.158;24.732;2023-04-10T13:40:46;99562.81;;;18.35;41.42
8051;BME280;4068;42.158;24.732;2023-04-10T13:43:11;99554.69;;;18.04;41.87
8051;BME280;4068;42.158;24.732;2023-04-10T13:45:44;99537.75;;;18.11;41.64
8051;BME280;4068;42.158;24.732;2023-04-10T13:48:10;99530.75;;;17.69;41.82
8051;BME280;4068;42.158;24.732;2023-04-10T13:50:35;99546.69;;;17.21;43.07
8051;BME280;4068;42.158;24.732;2023-04-10T13:53:01;99532.09;;;17.16;43.11